Tallahassee, FL

12:18 AM EDT on September 24, 2014 (GMT -0400)
Tallahassee Regional | Change Station
CLOSE
Current Station
Airport
Location: Tallahassee,
Elevation: 52 ft
Nearby Weather Stations

Elev 52 ft 30.39 °N, 84.35 °W | Updated 25 minutes ago

Partly Cloudy
Partly Cloudy
74 °F
Feels Like 74 °F
N
9
Wind Variable Wind from ENE

Today
High -- | Low -- °F
--% Chance of Precip.
Yesterday
High -- | Low -- °F
Precip. -- in
7:26 AM 7:31 PM
Waning Crescent, 0% visible
Pressure 30.11 in
Visibility 10.0 miles
Clouds Few 3500 ft
Dew Point 63 °F
Humidity 68%
Rainfall 0.00 in
Snow Depth Not available.
UV 0 out of 12
Pollen 9.10 out of 12
Air Quality Not available.
Flu Activity Not available.
METAR KTLH 240353Z AUTO 06008KT 10SM FEW035 23/17 A3011 RMK AO2 SLP195 T02330172

More Conditions Fewer Conditions

Pressure 30.11 in
Visibility 10.0 miles
Clouds Few 3500 ft
Dew Point 63 °F
Humidity 68%
Rainfall 0.00 in
Snow Depth Not available.
UV 0 out of 12
Pollen 9.10 out of 12
Air Quality Not available.
Flu Activity Not available.
METAR KTLH 240353Z AUTO 06008KT 10SM FEW035 23/17 A3011 RMK AO2 SLP195 T02330172

More Conditions Fewer Conditions

10-Day Weather Forecast

Almanac

Astronomy

Sep. 24, 2014 Rise Set
Actual Time 7:26 AM EDT 7:31 PM EDT
Civil Twilight 7:02 AM EDT 7:55 PM EDT
Nautical Twilight 6:34 AM EDT 8:23 PM EDT
Astronomical Twilight 6:06 AM EDT 8:51 PM EDT
Moon 7:43 AM EDT 7:46 PM EDT
Length of Visible Light 12h 52m
Length of Day
12h 04m
Tomorrow will be 1m 49s shorter.
Waning Crescent, 0% of the Moon is Illuminated
Today
Waning Crescent
Sep 24
New
Oct 1
First Quarter
Oct 8
Full
Oct 15
Last Quarter

Yesterday's Extremes

State Highs State Lows

Community

WunderPhotos

Upload Photos

1,755,890 photos uploaded!

WunderBlogs® & News

Nearby

Snow Depth

Station Depth Elevation
No new snow has been reported.

Earthquake Activity

City Distance Mag. Time & Date
No recent earthquake activity has been reported nearby.
Minimum magnitude displayed is 2.5.

Coastal Water Temperatures

Place Temperature
Apalachicola, FL 82.0 °F
Panama City, FL 84.0 °F

Nearby Weather Stations